createdAt,value
2019-03-20T00:00:57.537Z,82.12
2019-03-20T00:03:25.420Z,82.21
2019-03-20T00:05:53.196Z,82.30
2019-03-20T00:08:20.949Z,82.42
2019-03-20T00:10:49.122Z,82.45
2019-03-20T00:13:16.911Z,82.42
2019-03-20T00:15:44.758Z,82.60
2019-03-20T00:18:12.538Z,82.79
2019-03-20T00:20:40.327Z,82.98
2019-03-20T00:23:08.091Z,83.15
2019-03-20T00:25:36.318Z,83.24
2019-03-20T00:28:04.266Z,83.18
2019-03-20T00:30:32.133Z,83.51
2019-03-20T00:33:00.187Z,83.73
2019-03-20T00:35:27.998Z,83.79
2019-03-20T00:37:55.847Z,83.91
2019-03-20T00:40:23.909Z,84.05
2019-03-20T00:42:51.663Z,84.17
2019-03-20T00:45:19.463Z,84.30
2019-03-20T00:47:47.544Z,84.39
2019-03-20T00:50:15.426Z,84.48
2019-03-20T00:52:43.245Z,84.63
2019-03-20T00:55:11.594Z,84.78
2019-03-20T00:57:39.469Z,84.89
2019-03-20T01:00:09.877Z,84.91
2019-03-20T01:02:37.999Z,84.87
2019-03-20T01:05:12.468Z,85.01
2019-03-20T01:07:33.895Z,85.00
2019-03-20T01:10:02.315Z,84.96
2019-03-20T01:12:30.210Z,85.08
2019-03-20T01:14:58.018Z,85.23
2019-03-20T01:17:26.106Z,85.33
2019-03-20T01:19:53.937Z,85.45
2019-03-20T01:22:21.703Z,85.60
2019-03-20T01:24:49.746Z,85.76
2019-03-20T01:27:17.611Z,85.94
2019-03-20T01:29:45.342Z,86.13
2019-03-20T01:32:13.430Z,86.31
2019-03-20T01:34:41.213Z,86.37
2019-03-20T01:37:08.974Z,86.38
2019-03-20T01:39:37.026Z,86.42
2019-03-20T01:42:04.883Z,86.42
2019-03-20T01:44:32.654Z,86.32
2019-03-20T01:47:00.727Z,86.35
2019-03-20T01:49:28.457Z,86.52
2019-03-20T01:51:56.233Z,86.51
2019-03-20T01:54:24.317Z,86.42
2019-03-20T01:56:52.086Z,86.44
2019-03-20T01:59:19.886Z,86.48
2019-03-20T02:01:47.969Z,86.45
2019-03-20T02:04:15.734Z,86.37
2019-03-20T02:06:43.498Z,86.30
2019-03-20T02:09:11.531Z,86.35
2019-03-20T02:11:39.580Z,86.52
2019-03-20T02:14:07.397Z,86.91
2019-03-20T02:16:36.301Z,87.04
2019-03-20T02:19:04.233Z,87.17
2019-03-20T02:21:32.142Z,87.30
2019-03-20T02:24:00.091Z,87.59
2019-03-20T02:26:27.870Z,88.27
2019-03-20T02:28:55.890Z,88.76
2019-03-20T02:31:23.687Z,88.73
2019-03-20T02:33:51.432Z,88.60
2019-03-20T02:36:19.546Z,88.54
2019-03-20T02:38:47.287Z,88.57
2019-03-20T02:41:15.066Z,88.62
2019-03-20T02:43:42.856Z,88.64
2019-03-20T02:46:10.607Z,88.68
2019-03-20T02:48:38.424Z,88.64
2019-03-20T02:51:06.547Z,88.47
2019-03-20T02:53:34.378Z,88.35
2019-03-20T02:56:03.399Z,88.25
2019-03-20T02:58:33.819Z,88.33
2019-03-20T03:01:03.427Z,88.38
2019-03-20T03:03:33.448Z,88.45
2019-03-20T03:06:07.344Z,88.66
2019-03-20T03:08:29.609Z,89.01
2019-03-20T03:10:57.311Z,89.28
2019-03-20T03:13:24.988Z,89.45
2019-03-20T03:15:53.187Z,89.55
2019-03-20T03:18:20.921Z,89.58
2019-03-20T03:20:48.628Z,89.61
2019-03-20T03:23:16.345Z,89.66
2019-03-20T03:25:44.061Z,89.66
2019-03-20T03:28:11.760Z,89.60
2019-03-20T03:30:39.910Z,89.62
2019-03-20T03:33:07.606Z,89.69
2019-03-20T03:35:35.315Z,89.74
2019-03-20T03:38:03.056Z,89.79
2019-03-20T03:40:30.818Z,89.89
2019-03-20T03:42:58.528Z,89.91
2019-03-20T03:45:26.661Z,89.78
2019-03-20T03:47:54.368Z,89.66
2019-03-20T03:50:22.068Z,89.61
2019-03-20T03:52:50.386Z,89.26
2019-03-20T03:55:18.108Z,89.61
2019-03-20T03:57:46.059Z,89.73
2019-03-20T04:00:14.463Z,89.41
2019-03-20T04:02:42.195Z,89.87
2019-03-20T04:05:10.110Z,90.12
2019-03-20T04:07:37.830Z,90.33
2019-03-20T04:10:06.552Z,90.38
2019-03-20T04:12:34.262Z,90.40
2019-03-20T04:15:02.427Z,90.43
2019-03-20T04:17:30.230Z,90.47
2019-03-20T04:19:57.958Z,90.55
2019-03-20T04:22:25.915Z,90.71
2019-03-20T04:24:53.619Z,90.66
2019-03-20T04:27:21.359Z,90.60
2019-03-20T04:29:49.466Z,90.63
2019-03-20T04:32:17.225Z,90.76
2019-03-20T04:34:44.943Z,90.88
2019-03-20T04:37:13.073Z,90.84
2019-03-20T04:39:40.832Z,90.91
2019-03-20T04:42:08.499Z,90.91
2019-03-20T04:44:36.539Z,90.77
2019-03-20T04:47:04.511Z,90.76
2019-03-20T04:49:32.281Z,90.72
2019-03-20T04:52:00.278Z,90.67
2019-03-20T04:54:28.000Z,90.71
2019-03-20T04:56:55.679Z,90.72
2019-03-20T04:59:23.365Z,90.71
2019-03-20T05:01:51.112Z,90.85
2019-03-20T05:04:19.032Z,90.89
2019-03-20T05:06:57.879Z,91.09
2019-03-20T05:09:14.828Z,91.12
2019-03-20T05:11:42.517Z,91.09
2019-03-20T05:14:12.519Z,91.23
2019-03-20T05:16:39.382Z,91.34
2019-03-20T05:19:07.400Z,91.57
2019-03-20T05:21:35.589Z,91.62
2019-03-20T05:24:03.398Z,91.76
2019-03-20T05:26:31.096Z,92.12
2019-03-20T05:28:58.884Z,92.43
2019-03-20T05:31:26.566Z,92.62
2019-03-20T05:33:54.275Z,92.64
2019-03-20T05:36:22.329Z,92.68
2019-03-20T05:38:50.010Z,92.84
2019-03-20T05:41:17.831Z,92.97
2019-03-20T05:43:46.199Z,92.94
2019-03-20T05:46:14.097Z,92.99
2019-03-20T05:48:41.854Z,92.96
2019-03-20T05:51:09.863Z,92.97
2019-03-20T05:53:37.635Z,93.11
2019-03-20T05:56:05.464Z,93.16
2019-03-20T05:58:33.644Z,93.25
2019-03-20T06:01:01.597Z,93.42
2019-03-20T06:03:29.335Z,93.73
2019-03-20T06:05:57.447Z,93.88
2019-03-20T06:08:25.278Z,93.82
2019-03-20T06:10:53.109Z,93.82
2019-03-20T06:13:21.341Z,93.94
2019-03-20T06:15:49.453Z,94.09
2019-03-20T06:18:21.721Z,94.20
2019-03-20T06:20:49.791Z,94.35
2019-03-20T06:23:17.587Z,94.63
2019-03-20T06:25:45.461Z,94.79
2019-03-20T06:28:13.817Z,94.81
2019-03-20T06:30:41.784Z,94.86
2019-03-20T06:33:09.524Z,95.04
2019-03-20T06:35:37.613Z,95.16
2019-03-20T06:38:05.368Z,95.40
2019-03-20T06:40:33.096Z,95.68
2019-03-20T06:43:01.180Z,95.83
2019-03-20T06:45:28.942Z,96.12
2019-03-20T06:47:56.728Z,96.41
2019-03-20T06:50:24.945Z,96.52
2019-03-20T06:52:52.761Z,96.64
2019-03-20T06:55:20.457Z,96.65
2019-03-20T06:57:48.580Z,96.95
2019-03-20T07:00:28.279Z,97.14
2019-03-20T07:02:56.558Z,97.19
2019-03-20T07:05:43.134Z,97.31
2019-03-20T07:08:10.974Z,97.46
2019-03-20T07:11:16.607Z,97.14
2019-03-20T07:13:44.350Z,97.07
2019-03-20T07:16:12.144Z,97.40
2019-03-20T07:18:40.347Z,97.78
2019-03-20T07:21:08.064Z,98.11
2019-03-20T07:23:35.875Z,97.94
2019-03-20T07:26:04.172Z,97.40
2019-03-20T07:28:31.895Z,96.37
2019-03-20T07:30:59.690Z,95.65
2019-03-20T07:33:27.845Z,95.13
2019-03-20T07:35:55.664Z,94.03
2019-03-20T07:38:23.707Z,92.91
2019-03-20T07:40:51.694Z,91.78
2019-03-20T07:43:19.468Z,90.36
2019-03-20T07:45:47.507Z,89.29
2019-03-20T07:48:22.117Z,88.21
2019-03-20T07:50:43.461Z,85.76
2019-03-20T07:53:11.255Z,84.79
2019-03-20T07:55:38.967Z,81.80
2019-03-20T07:58:06.903Z,80.19
2019-03-20T08:00:34.679Z,78.95
2019-03-20T08:03:02.766Z,78.64
2019-03-20T08:05:30.641Z,78.03
2019-03-20T08:08:06.748Z,76.98
2019-03-20T08:10:27.248Z,76.15
2019-03-20T08:12:55.252Z,74.67
2019-03-20T08:15:22.975Z,72.98
2019-03-20T08:17:51.040Z,72.14
2019-03-20T08:20:18.827Z,71.39
2019-03-20T08:22:46.544Z,70.96
2019-03-20T08:25:14.220Z,68.91
2019-03-20T08:27:41.939Z,68.40
2019-03-20T08:30:13.667Z,66.86
2019-03-20T08:32:39.536Z,66.28
2019-03-20T08:35:08.536Z,66.06
2019-03-20T08:37:36.416Z,65.58
2019-03-20T08:40:05.134Z,63.74
2019-03-20T08:42:33.364Z,62.40
2019-03-20T08:45:01.113Z,62.43
2019-03-20T08:47:29.476Z,61.82
2019-03-20T08:49:57.186Z,61.05
2019-03-20T08:52:24.990Z,61.29
2019-03-20T08:54:52.751Z,60.84
2019-03-20T08:57:20.493Z,59.34
2019-03-20T08:59:48.655Z,59.71
2019-03-20T09:02:16.675Z,59.21
2019-03-20T09:04:44.677Z,57.67
2019-03-20T09:07:12.575Z,58.18
2019-03-20T09:09:40.312Z,58.85
2019-03-20T09:12:08.163Z,59.59
2019-03-20T09:14:36.005Z,58.83
2019-03-20T09:17:03.828Z,58.01
2019-03-20T09:19:31.547Z,57.04
2019-03-20T09:21:59.319Z,56.07
2019-03-20T09:24:27.429Z,55.56
2019-03-20T09:26:55.120Z,56.29
2019-03-20T09:29:22.867Z,56.38
2019-03-20T09:31:51.031Z,53.76
2019-03-20T09:34:18.711Z,53.50
2019-03-20T09:36:46.801Z,53.53
2019-03-20T09:39:14.801Z,52.03
2019-03-20T09:41:42.499Z,53.69
2019-03-20T09:44:10.196Z,53.46
2019-03-20T09:46:38.496Z,52.95
2019-03-20T09:49:06.204Z,52.11
2019-03-20T09:51:33.939Z,52.32
2019-03-20T09:54:01.961Z,51.95
2019-03-20T09:56:29.767Z,52.11
2019-03-20T09:58:57.467Z,52.58
2019-03-20T10:01:25.693Z,51.95
2019-03-20T10:03:55.139Z,51.34
2019-03-20T10:06:22.879Z,51.92
2019-03-20T10:08:54.306Z,53.64
2019-03-20T10:11:19.206Z,53.16
2019-03-20T10:13:47.004Z,52.75
2019-03-20T10:16:16.100Z,51.81
2019-03-20T10:18:44.386Z,52.55
2019-03-20T10:21:12.087Z,52.15
2019-03-20T10:23:40.158Z,52.37
2019-03-20T10:26:08.056Z,51.89
2019-03-20T10:28:35.845Z,51.17
2019-03-20T10:31:04.130Z,51.36
2019-03-20T10:33:32.079Z,52.52
2019-03-20T10:35:59.814Z,50.81
2019-03-20T10:38:27.817Z,50.71
2019-03-20T10:40:55.524Z,51.33
2019-03-20T10:43:23.279Z,51.72
2019-03-20T10:45:50.978Z,50.92
2019-03-20T10:48:18.896Z,51.18
2019-03-20T10:50:46.682Z,50.23
2019-03-20T10:53:14.689Z,48.76
2019-03-20T10:55:42.572Z,48.79
2019-03-20T10:58:10.300Z,48.00
2019-03-20T11:00:40.677Z,47.25
2019-03-20T11:03:06.604Z,47.45
2019-03-20T11:05:34.618Z,46.91
2019-03-20T11:08:03.763Z,47.39
2019-03-20T11:10:31.782Z,47.07
2019-03-20T11:13:01.166Z,46.83
2019-03-20T11:15:29.871Z,47.34
2019-03-20T11:17:56.940Z,48.10
2019-03-20T11:20:25.160Z,48.20
2019-03-20T11:22:53.740Z,47.29
2019-03-20T11:25:21.501Z,47.00
2019-03-20T11:27:49.592Z,46.88
2019-03-20T11:30:20.294Z,44.85
2019-03-20T11:32:48.197Z,46.68
2019-03-20T11:35:17.364Z,46.66
2019-03-20T11:37:45.108Z,46.78
2019-03-20T11:40:17.836Z,46.19
2019-03-20T11:42:45.873Z,46.20
2019-03-20T11:45:13.720Z,44.27
2019-03-20T11:47:41.745Z,44.46
2019-03-20T11:50:13.614Z,42.10
2019-03-20T11:52:41.621Z,43.12
2019-03-20T11:55:10.470Z,44.84
2019-03-20T11:57:38.523Z,44.01
2019-03-20T12:00:09.079Z,42.87
2019-03-20T12:02:38.106Z,43.68
2019-03-20T12:05:06.595Z,43.96
2019-03-20T12:07:35.650Z,43.77
2019-03-20T12:10:08.747Z,42.40
2019-03-20T12:12:36.893Z,42.40
2019-03-20T12:15:06.960Z,42.66
2019-03-20T12:17:36.006Z,41.66
2019-03-20T12:20:10.835Z,42.49
2019-03-20T12:22:40.315Z,43.58
2019-03-20T12:25:12.170Z,44.47
2019-03-20T12:27:40.568Z,43.21
2019-03-20T12:30:10.911Z,43.53
2019-03-20T12:32:42.177Z,43.72
2019-03-20T12:35:11.902Z,43.17
2019-03-20T12:37:41.165Z,43.05
2019-03-20T12:40:14.391Z,42.63
2019-03-20T12:42:44.866Z,42.15
2019-03-20T12:45:13.906Z,43.01
2019-03-20T12:47:41.837Z,44.10
2019-03-20T12:50:11.208Z,44.48
2019-03-20T12:52:39.891Z,44.99
2019-03-20T12:55:09.600Z,43.87
2019-03-20T12:57:37.626Z,44.04
2019-03-20T13:00:08.676Z,44.68
2019-03-20T13:02:37.305Z,44.61
2019-03-20T13:05:06.509Z,45.21
2019-03-20T13:07:34.381Z,43.41
2019-03-20T13:10:10.737Z,44.38
2019-03-20T13:12:38.791Z,42.55
2019-03-20T13:15:08.287Z,42.33
2019-03-20T13:17:36.445Z,43.17
2019-03-20T13:20:06.179Z,43.25
2019-03-20T13:22:34.676Z,44.23
2019-03-20T13:25:03.924Z,44.75
2019-03-20T13:27:33.960Z,45.26
2019-03-20T13:30:04.013Z,44.39
2019-03-20T13:32:32.238Z,43.57
2019-03-20T13:35:00.953Z,41.53
2019-03-20T13:37:28.839Z,41.27
2019-03-20T13:39:57.667Z,41.68
2019-03-20T13:42:26.694Z,42.72
2019-03-20T13:44:55.054Z,41.96
2019-03-20T13:47:23.295Z,42.72
2019-03-20T13:49:52.989Z,43.86
2019-03-20T13:52:21.485Z,44.46
2019-03-20T13:54:53.195Z,45.37
2019-03-20T13:57:21.934Z,44.03
2019-03-20T13:59:54.801Z,44.07
2019-03-20T14:02:24.261Z,43.46
2019-03-20T14:04:52.918Z,42.78
2019-03-20T14:07:26.071Z,43.84
2019-03-20T14:09:55.107Z,43.80
2019-03-20T14:12:25.877Z,43.86
2019-03-20T14:14:53.894Z,43.29
2019-03-20T14:17:21.726Z,43.82
2019-03-20T14:19:50.767Z,43.92
2019-03-20T14:22:20.041Z,44.13
2019-03-20T14:24:51.766Z,42.55
2019-03-20T14:27:22.846Z,42.52
2019-03-20T14:29:50.736Z,42.99
2019-03-20T14:32:21.849Z,41.46
2019-03-20T14:34:50.831Z,42.08
2019-03-20T14:37:33.920Z,41.89
2019-03-20T14:40:03.239Z,41.66
2019-03-20T14:42:31.131Z,41.16
2019-03-20T14:45:00.833Z,41.75
2019-03-20T14:47:29.271Z,42.06
2019-03-20T14:49:57.032Z,41.69
2019-03-20T14:52:25.802Z,41.93
2019-03-20T14:54:53.815Z,41.84
2019-03-20T14:57:21.525Z,42.64
2019-03-20T15:00:05.638Z,43.25
2019-03-20T15:02:33.609Z,43.41
2019-03-20T15:05:04.592Z,43.25
2019-03-20T15:07:35.383Z,42.89
2019-03-20T15:10:05.263Z,43.31
2019-03-20T15:12:34.673Z,43.29
2019-03-20T15:15:04.288Z,43.78
2019-03-20T15:17:32.632Z,43.23
2019-03-20T15:20:02.837Z,43.16
2019-03-20T15:22:37.081Z,43.85
2019-03-20T15:25:06.480Z,44.37
2019-03-20T15:27:35.239Z,44.44
2019-03-20T15:30:09.218Z,44.62
2019-03-20T15:32:38.661Z,44.97
2019-03-20T15:35:08.751Z,44.82
2019-03-20T15:37:37.280Z,45.11
2019-03-20T15:40:08.066Z,45.03
2019-03-20T15:42:39.905Z,45.44
2019-03-20T15:45:11.416Z,45.56
2019-03-20T15:47:39.742Z,45.79
2019-03-20T15:50:10.837Z,45.65
2019-03-20T15:52:41.368Z,46.12
2019-03-20T15:55:13.857Z,46.29
2019-03-20T15:57:43.237Z,46.18
2019-03-20T16:00:15.088Z,45.95
2019-03-20T16:02:43.544Z,45.55
2019-03-20T16:05:12.180Z,46.00
2019-03-20T16:07:40.354Z,45.59
2019-03-20T16:10:13.571Z,45.69
2019-03-20T16:12:43.204Z,45.44
2019-03-20T16:15:12.943Z,45.66
2019-03-20T16:17:42.545Z,45.46
2019-03-20T16:20:12.983Z,45.88
2019-03-20T16:22:41.629Z,46.29
2019-03-20T16:25:10.789Z,46.47
2019-03-20T16:27:40.164Z,46.47
2019-03-20T16:30:13.429Z,46.17
2019-03-20T16:32:46.046Z,45.72
2019-03-20T16:35:14.588Z,45.91
2019-03-20T16:37:42.428Z,45.66
2019-03-20T16:40:13.573Z,45.40
2019-03-20T16:42:42.186Z,45.66
2019-03-20T16:45:15.029Z,45.70
2019-03-20T16:47:43.448Z,46.08
2019-03-20T16:50:15.369Z,45.96
2019-03-20T16:52:44.095Z,46.18
2019-03-20T16:55:12.319Z,46.48
2019-03-20T16:57:44.617Z,46.65
2019-03-20T17:00:17.621Z,47.02
2019-03-20T17:02:45.825Z,47.29
2019-03-20T17:05:14.409Z,47.47
2019-03-20T17:07:42.641Z,47.67
2019-03-20T17:10:14.243Z,47.90
2019-03-20T17:12:43.733Z,47.99
2019-03-20T17:15:16.727Z,48.32
2019-03-20T17:17:46.038Z,48.49
2019-03-20T17:20:17.149Z,48.67
2019-03-20T17:22:45.628Z,48.87
2019-03-20T17:25:13.702Z,49.12
2019-03-20T17:27:42.276Z,49.23
2019-03-20T17:30:14.409Z,49.53
2019-03-20T17:32:42.739Z,49.83
2019-03-20T17:35:13.591Z,50.01
2019-03-20T17:37:42.081Z,50.30
2019-03-20T17:40:15.054Z,50.33
2019-03-20T17:42:45.441Z,50.75
2019-03-20T17:45:18.902Z,51.02
2019-03-20T17:47:49.855Z,51.46
2019-03-20T17:50:23.638Z,51.81
2019-03-20T17:52:57.154Z,51.78
2019-03-20T17:55:25.859Z,52.29
2019-03-20T17:57:57.379Z,52.69
2019-03-20T18:00:31.547Z,53.07
2019-03-20T18:03:00.363Z,53.41
2019-03-20T18:05:28.476Z,53.71
2019-03-20T18:07:56.651Z,54.03
2019-03-20T18:10:25.063Z,54.35
2019-03-20T18:12:52.984Z,54.71
2019-03-20T18:15:21.246Z,54.97
2019-03-20T18:17:50.590Z,55.26
2019-03-20T18:20:19.264Z,55.64
2019-03-20T18:22:47.790Z,55.75
2019-03-20T18:25:16.420Z,55.72
2019-03-20T18:27:44.311Z,55.82
2019-03-20T18:30:15.322Z,56.03
2019-03-20T18:32:44.585Z,56.22
2019-03-20T18:35:14.909Z,56.38
2019-03-20T18:37:43.071Z,56.46
2019-03-20T18:40:12.471Z,56.61
2019-03-20T18:42:40.626Z,56.80
2019-03-20T18:45:09.763Z,57.06
2019-03-20T18:47:37.674Z,57.33
2019-03-20T18:50:06.847Z,57.60
2019-03-20T18:52:34.620Z,57.83
2019-03-20T18:55:05.281Z,58.10
2019-03-20T18:57:34.376Z,58.22
2019-03-20T19:00:03.844Z,58.42
2019-03-20T19:02:31.939Z,58.55
2019-03-20T19:05:00.214Z,58.63
2019-03-20T19:07:28.652Z,58.78
2019-03-20T19:09:57.613Z,58.94
2019-03-20T19:12:26.138Z,59.14
2019-03-20T19:14:56.789Z,59.40
2019-03-20T19:17:25.719Z,59.64
2019-03-20T19:19:54.029Z,59.86
2019-03-20T19:22:21.938Z,60.16
2019-03-20T19:24:50.812Z,60.63
2019-03-20T19:27:18.808Z,61.15
2019-03-20T19:29:47.344Z,61.47
2019-03-20T19:32:15.221Z,61.62
2019-03-20T19:34:43.616Z,61.96
2019-03-20T19:37:12.984Z,62.24
2019-03-20T19:39:41.159Z,62.50
2019-03-20T19:42:19.444Z,62.78
2019-03-20T19:44:37.912Z,63.00
2019-03-20T19:47:05.663Z,63.18
2019-03-20T19:49:33.551Z,63.36
2019-03-20T19:52:01.791Z,63.71
2019-03-20T19:54:29.847Z,63.96
2019-03-20T19:56:57.656Z,64.25
2019-03-20T19:59:26.212Z,64.40
2019-03-20T20:01:54.409Z,64.38
2019-03-20T20:04:22.344Z,64.46
2019-03-20T20:06:50.953Z,64.66
2019-03-20T20:09:19.727Z,64.98
2019-03-20T20:11:47.852Z,65.14
2019-03-20T20:14:15.931Z,65.46
2019-03-20T20:16:43.803Z,65.80
2019-03-20T20:19:11.651Z,66.16
2019-03-20T20:21:39.773Z,66.46
2019-03-20T20:24:10.355Z,66.64
2019-03-20T20:26:38.205Z,66.91
2019-03-20T20:29:07.755Z,67.11
2019-03-20T20:31:42.452Z,67.28
2019-03-20T20:34:11.083Z,67.54
2019-03-20T20:36:40.753Z,67.73
2019-03-20T20:39:08.459Z,67.88
2019-03-20T20:41:37.487Z,68.22
2019-03-20T20:44:06.883Z,68.49
2019-03-20T20:46:33.940Z,68.83
2019-03-20T20:49:11.763Z,68.82
2019-03-20T20:51:40.158Z,69.23
2019-03-20T20:54:08.513Z,69.45
2019-03-20T20:56:36.755Z,69.61
2019-03-20T20:59:05.153Z,69.85
2019-03-20T21:01:32.972Z,70.16
2019-03-20T21:04:04.648Z,70.14
2019-03-20T21:06:36.745Z,70.30
2019-03-20T21:09:10.120Z,70.58
2019-03-20T21:11:39.991Z,70.81
2019-03-20T21:14:08.130Z,70.89
2019-03-20T21:19:24.423Z,71.77
2019-03-20T21:24:08.270Z,71.55
2019-03-20T21:29:27.647Z,71.88
2019-03-20T21:35:01.171Z,71.96
2019-03-20T21:38:04.644Z,71.67
2019-03-20T21:43:24.389Z,72.18
2019-03-20T21:46:05.284Z,71.92
2019-03-20T22:12:01.589Z,72.20
2019-03-20T22:17:55.219Z,72.22
2019-03-20T22:28:27.901Z,73.20
2019-03-20T22:33:44.892Z,73.16
2019-03-20T22:41:05.838Z,73.30
2019-03-20T22:46:25.515Z,73.49
2019-03-20T22:55:11.849Z,74.87
